Time;durP1;ratioP1;P1;durP2;ratioP2;P2;SDS_P1;SDS_P2;PMS_P1;PMS_P2;Temp;Humidity;BMP_temperature;BMP_pressure;BME280_temperature;BME280_humidity;BME280_pressure;Samples;Min_cycle;Max_cycle;Signal;HPM_P1;HPM_P2
2023/10/18 00:00:28;;;;;;;3.30;0.40;;;18.10;99.90;;;;;;5062974;28;20193;-83
2023/10/18 00:03:01;;;;;;;3.78;0.40;;;18.00;99.90;;;;;;5070805;28;20247;-84
2023/10/18 00:05:32;;;;;;;1.30;0.55;;;18.00;99.90;;;;;;5061662;28;20297;-83
2023/10/18 00:08:04;;;;;;;3.17;0.45;;;18.00;99.90;;;;;;5069377;28;20197;-82
2023/10/18 00:10:36;;;;;;;3.67;0.47;;;18.00;99.90;;;;;;5072557;28;20692;-83
2023/10/18 00:13:08;;;;;;;3.15;0.55;;;18.10;99.90;;;;;;5072538;28;20189;-83
2023/10/18 00:15:39;;;;;;;2.67;0.40;;;18.10;99.90;;;;;;5071096;28;20200;-84
2023/10/18 00:18:11;;;;;;;3.67;0.55;;;18.20;99.90;;;;;;5067022;28;20683;-81
2023/10/18 00:20:43;;;;;;;2.60;0.55;;;18.30;99.90;;;;;;5061484;28;20276;-80
2023/10/18 00:23:16;;;;;;;0.98;0.40;;;18.30;99.90;;;;;;5071361;28;20209;-81
2023/10/18 00:25:47;;;;;;;1.48;0.30;;;18.50;99.90;;;;;;5069999;28;20217;-84
2023/10/18 00:28:19;;;;;;;1.55;0.45;;;18.50;99.90;;;;;;5071469;28;20189;-84
2023/10/18 00:30:52;;;;;;;2.30;0.60;;;18.60;99.90;;;;;;5071956;28;20193;-81
2023/10/18 00:33:23;;;;;;;3.70;0.38;;;18.60;99.90;;;;;;5073279;28;20614;-82
2023/10/18 00:35:57;;;;;;;1.70;0.43;;;18.70;99.90;;;;;;5072593;28;20196;-82
2023/10/18 00:38:30;;;;;;;2.50;0.55;;;18.80;99.90;;;;;;5073238;28;20192;-80
2023/10/18 00:41:04;;;;;;;2.42;0.43;;;18.90;99.90;;;;;;5072711;28;20196;-84
2023/10/18 00:43:36;;;;;;;3.70;0.50;;;18.90;99.90;;;;;;5073186;28;20188;-82
2023/10/18 00:46:08;;;;;;;2.88;0.45;;;18.80;99.90;;;;;;5073162;28;20224;-82
2023/10/18 00:48:39;;;;;;;2.42;0.40;;;18.80;99.90;;;;;;5072702;28;20193;-81
2023/10/18 00:51:15;;;;;;;2.53;0.50;;;18.70;99.90;;;;;;5072825;28;20242;-83
2023/10/18 00:53:49;;;;;;;2.08;0.75;;;18.70;99.90;;;;;;5072266;28;20645;-82
2023/10/18 00:56:22;;;;;;;2.97;0.40;;;18.70;99.90;;;;;;5072857;28;20197;-81
2023/10/18 00:58:58;;;;;;;1.52;0.40;;;18.70;99.90;;;;;;5073136;28;20212;-83
2023/10/18 01:01:30;;;;;;;0.73;0.32;;;18.70;99.90;;;;;;5073142;28;20188;-82
2023/10/18 01:04:04;;;;;;;2.53;0.50;;;18.70;99.90;;;;;;5073083;28;20217;-85
2023/10/18 01:06:36;;;;;;;5.03;0.77;;;18.70;99.90;;;;;;5073125;28;20222;-84
2023/10/18 01:09:15;;;;;;;2.70;0.50;;;18.70;99.90;;;;;;5072704;28;20192;-83
2023/10/18 01:11:47;;;;;;;2.08;0.40;;;18.70;99.90;;;;;;5073129;28;20228;-83
2023/10/18 01:14:18;;;;;;;5.05;0.65;;;18.70;99.90;;;;;;5073036;28;20645;-83
2023/10/18 01:16:49;;;;;;;2.10;0.43;;;18.80;99.90;;;;;;5073171;28;20201;-84
2023/10/18 01:19:20;;;;;;;1.33;0.43;;;19.20;99.90;;;;;;5072835;28;20194;-84
2023/10/18 01:21:52;;;;;;;4.05;0.40;;;19.40;99.90;;;;;;5073171;28;20200;-83
2023/10/18 01:24:25;;;;;;;2.60;0.50;;;19.30;99.90;;;;;;5072943;28;20212;-88
2023/10/18 01:26:58;;;;;;;1.85;0.57;;;19.00;99.90;;;;;;5073041;28;20279;-85
2023/10/18 01:29:28;;;;;;;1.85;0.45;;;19.00;99.90;;;;;;5057635;28;20288;-86
2023/10/18 01:32:00;;;;;;;2.15;0.50;;;18.90;99.90;;;;;;5052557;28;20763;-86
2023/10/18 01:34:31;;;;;;;4.18;0.60;;;19.10;99.90;;;;;;5052759;28;20289;-82
2023/10/18 01:37:03;;;;;;;3.85;0.60;;;19.50;99.90;;;;;;5052656;28;20295;-82
2023/10/18 01:39:34;;;;;;;1.52;0.30;;;19.80;99.90;;;;;;5052964;28;20193;-84
2023/10/18 01:42:08;;;;;;;4.78;0.50;;;20.10;99.90;;;;;;5052703;28;20194;-84
2023/10/18 01:44:39;;;;;;;4.22;0.50;;;20.50;99.90;;;;;;5053949;28;20213;-82
2023/10/18 01:47:12;;;;;;;2.95;0.50;;;20.20;99.90;;;;;;5054995;28;20546;-82
2023/10/18 01:49:44;;;;;;;2.22;0.82;;;20.10;99.90;;;;;;5052910;28;20645;-81
2023/10/18 01:52:18;;;;;;;2.70;0.50;;;20.10;99.90;;;;;;5053721;28;20638;-84
2023/10/18 01:54:50;;;;;;;3.05;0.45;;;20.70;99.90;;;;;;5056392;28;20547;-85
2023/10/18 01:57:24;;;;;;;1.08;0.30;;;20.90;99.90;;;;;;5056185;28;20631;-81
2023/10/18 01:59:56;;;;;;;4.95;0.60;;;20.90;99.90;;;;;;5056222;28;20650;-86
2023/10/18 02:02:27;;;;;;;2.75;0.40;;;20.80;99.90;;;;;;5056088;28;20194;-86
2023/10/18 02:04:58;;;;;;;2.22;0.50;;;20.50;99.90;;;;;;5056082;28;20267;-86
2023/10/18 02:07:29;;;;;;;4.75;0.50;;;20.40;99.90;;;;;;5055817;28;20200;-81
2023/10/18 02:10:00;;;;;;;4.63;1.80;;;20.30;99.90;;;;;;5055930;28;20193;-85
2023/10/18 02:12:33;;;;;;;3.75;1.10;;;20.20;99.90;;;;;;5055888;28;20240;-81
2023/10/18 02:15:07;;;;;;;4.05;0.80;;;20.20;99.90;;;;;;5055857;28;20665;-86
2023/10/18 02:17:39;;;;;;;2.60;0.43;;;20.40;99.90;;;;;;5055720;28;20200;-83
2023/10/18 02:20:25;;;;;;;1.63;0.50;;;20.40;99.90;;;;;;5056017;28;20642;-81
2023/10/18 02:22:59;;;;;;;3.53;0.63;;;20.40;99.90;;;;;;5055784;28;20196;-83
2023/10/18 02:25:43;;;;;;;34.25;4.78;;;20.70;99.90;;;;;;5055617;28;20217;-83
2023/10/18 02:28:27;;;;;;;2.55;0.50;;;20.90;99.90;;;;;;5055526;28;20201;-82
2023/10/18 02:31:08;;;;;;;1.52;0.60;;;20.90;99.90;;;;;;5055627;28;20287;-88
2023/10/18 02:33:39;;;;;;;4.88;0.77;;;20.70;99.90;;;;;;5055763;28;20205;-84
2023/10/18 02:36:12;;;;;;;2.40;0.50;;;20.40;99.90;;;;;;5055398;28;20200;-84
2023/10/18 02:38:44;;;;;;;1.92;0.50;;;20.20;99.90;;;;;;5055432;28;20212;-85
2023/10/18 02:41:20;;;;;;;2.50;0.57;;;20.10;99.90;;;;;;5055908;28;20557;-83
2023/10/18 02:43:54;;;;;;;1.85;0.40;;;20.00;99.90;;;;;;5055538;28;20185;-85
2023/10/18 02:46:25;;;;;;;1.73;0.57;;;19.90;99.90;;;;;;5055183;28;20325;-83
2023/10/18 02:49:00;;;;;;;2.08;0.52;;;19.90;99.90;;;;;;5055221;28;20261;-82
2023/10/18 02:51:32;;;;;;;3.55;0.60;;;20.20;99.90;;;;;;5055031;28;20185;-80
2023/10/18 02:54:07;;;;;;;2.88;0.65;;;20.40;99.90;;;;;;5055159;28;20674;-82
2023/10/18 02:56:39;;;;;;;5.35;0.60;;;20.40;99.90;;;;;;5055543;28;20297;-83
2023/10/18 02:59:13;;;;;;;2.08;0.50;;;20.30;99.90;;;;;;5055029;28;20194;-82
2023/10/18 03:01:44;;;;;;;3.20;0.70;;;20.10;99.90;;;;;;5055354;28;20193;-81
2023/10/18 03:04:16;;;;;;;2.75;0.70;;;20.00;99.90;;;;;;5054460;28;20557;-81
2023/10/18 03:06:47;;;;;;;3.65;0.45;;;20.00;99.90;;;;;;5054884;28;20185;-82
2023/10/18 03:09:38;;;;;;;0.88;0.40;;;19.90;99.90;;;;;;5054759;28;20601;-82
2023/10/18 03:12:15;;;;;;;2.42;0.35;;;19.80;99.90;;;;;;5066272;28;20196;-83
2023/10/18 03:14:55;;;;;;;3.97;0.40;;;19.70;99.90;;;;;;5074826;28;20219;-81
2023/10/18 03:17:28;;;;;;;1.50;0.40;;;19.60;99.90;;;;;;5074685;28;20193;-81
2023/10/18 03:19:59;;;;;;;2.60;0.57;;;19.60;99.90;;;;;;5074448;28;20193;-83
2023/10/18 03:22:32;;;;;;;0.93;0.40;;;19.80;99.90;;;;;;5074927;28;20250;-83
2023/10/18 03:25:09;;;;;;;2.88;0.40;;;19.90;99.90;;;;;;5074396;28;20213;-81
2023/10/18 03:27:49;;;;;;;1.77;0.50;;;19.90;99.90;;;;;;5074410;28;20192;-83
2023/10/18 03:30:23;;;;;;;1.60;0.47;;;19.90;99.90;;;;;;5054428;28;20213;-83
2023/10/18 03:32:54;;;;;;;3.65;0.50;;;19.80;99.90;;;;;;5071503;28;20225;-83
2023/10/18 03:35:26;;;;;;;1.27;0.30;;;19.70;99.90;;;;;;5074139;28;20915;-83
2023/10/18 03:38:03;;;;;;;1.67;0.50;;;19.70;99.90;;;;;;5074564;28;20196;-84
2023/10/18 03:40:38;;;;;;;2.75;0.60;;;19.70;99.90;;;;;;5074345;28;20193;-82
2023/10/18 03:43:10;;;;;;;3.30;0.43;;;20.00;99.90;;;;;;5074150;28;20188;-82
2023/10/18 03:46:13;;;;;;;2.03;0.40;;;19.90;99.90;;;;;;5073907;28;20272;-82
2023/10/18 03:48:47;;;;;;;3.20;0.40;;;19.90;99.90;;;;;;5073760;28;20242;-82
2023/10/18 03:51:23;;;;;;;4.80;0.50;;;19.90;99.90;;;;;;5074348;28;20238;-83
2023/10/18 03:53:55;;;;;;;2.55;0.50;;;19.80;99.90;;;;;;5074028;28;20610;-82
2023/10/18 03:56:29;;;;;;;2.78;0.50;;;19.70;99.90;;;;;;5074263;28;20219;-82
2023/10/18 03:59:18;;;;;;;3.53;0.60;;;19.70;99.90;;;;;;5074209;28;20184;-82
2023/10/18 04:02:06;;;;;;;1.75;0.43;;;19.60;99.90;;;;;;5073872;28;20570;-86
2023/10/18 04:04:37;;;;;;;4.18;0.70;;;19.80;99.90;;;;;;5073906;28;20199;-85
2023/10/18 04:07:16;;;;;;;3.08;0.52;;;19.80;99.90;;;;;;5073926;28;20276;-82
2023/10/18 04:09:53;;;;;;;3.05;0.43;;;19.70;99.90;;;;;;5073569;28;20185;-80
2023/10/18 04:12:24;;;;;;;2.63;0.63;;;19.50;99.90;;;;;;5073629;28;20193;-83
2023/10/18 04:14:56;;;;;;;3.47;0.57;;;19.60;99.90;;;;;;5072925;28;20192;-80
2023/10/18 04:17:38;;;;;;;3.67;0.70;;;19.70;99.90;;;;;;5073336;28;20189;-85
2023/10/18 04:20:22;;;;;;;3.50;0.55;;;19.90;99.90;;;;;;5073545;28;20189;-83
2023/10/18 04:22:53;;;;;;;1.77;0.50;;;20.00;99.90;;;;;;5073875;28;20189;-84
2023/10/18 04:25:30;;;;;;;2.42;0.55;;;20.00;99.90;;;;;;5073471;28;20730;-82
2023/10/18 04:28:02;;;;;;;2.55;0.50;;;19.90;99.90;;;;;;5073452;28;20199;-84
2023/10/18 04:30:36;;;;;;;2.22;0.47;;;19.80;99.90;;;;;;5073240;28;20196;-81
2023/10/18 04:33:24;;;;;;;2.50;0.75;;;19.70;99.90;;;;;;5033334;28;20204;-81
2023/10/18 04:36:00;;;;;;;5.78;0.60;;;19.70;99.90;;;;;;5033404;28;20256;-81
2023/10/18 04:38:36;;;;;;;3.28;0.70;;;19.60;99.90;;;;;;5033374;28;20563;-83
2023/10/18 04:41:08;;;;;;;2.67;0.47;;;19.70;99.90;;;;;;5033373;28;20594;-81
2023/10/18 04:43:42;;;;;;;2.90;0.43;;;19.80;99.90;;;;;;5033363;28;20624;-85
2023/10/18 04:46:16;;;;;;;1.98;0.60;;;20.00;99.90;;;;;;5032965;28;20237;-82
2023/10/18 04:52:07;;;;;;;2.30;0.38;;;20.20;99.90;;;;;;5152547;27;20485;-80
2023/10/18 04:54:38;;;;;;;4.05;0.60;;;20.20;99.90;;;;;;5131424;27;20286;-84
2023/10/18 04:57:10;;;;;;;1.50;0.60;;;20.20;99.90;;;;;;5131593;27;20194;-82
2023/10/18 04:59:46;;;;;;;4.18;0.70;;;20.30;99.90;;;;;;5132364;27;20205;-82
2023/10/18 05:02:26;;;;;;;3.92;0.90;;;20.30;99.90;;;;;;5131405;27;20297;-82
2023/10/18 05:04:57;;;;;;;2.65;0.50;;;20.30;99.90;;;;;;5131602;27;20191;-83
2023/10/18 05:07:41;;;;;;;1.80;0.35;;;20.20;99.90;;;;;;5131512;27;20201;-81
2023/10/18 05:10:23;;;;;;;3.72;0.52;;;20.20;99.90;;;;;;5131682;27;20222;-83
2023/10/18 05:13:01;;;;;;;1.95;0.50;;;20.00;99.90;;;;;;5131397;27;20298;-81
2023/10/18 05:15:32;;;;;;;3.55;0.50;;;19.90;99.90;;;;;;5131024;27;20278;-79
2023/10/18 05:18:15;;;;;;;4.20;0.50;;;19.70;99.90;;;;;;5131251;27;20240;-81
2023/10/18 05:20:55;;;;;;;4.93;0.65;;;19.70;99.90;;;;;;5131272;27;20232;-81
2023/10/18 05:23:32;;;;;;;2.80;0.60;;;19.70;99.90;;;;;;5131229;27;20643;-79
2023/10/18 05:26:17;;;;;;;4.47;0.57;;;19.80;99.90;;;;;;5131200;27;20277;-80
2023/10/18 05:28:52;;;;;;;2.28;0.50;;;19.90;99.90;;;;;;5122738;27;20548;-81
2023/10/18 05:31:44;;;;;;;3.38;0.50;;;19.90;99.90;;;;;;5110195;28;20313;-82
2023/10/18 05:34:20;;;;;;;3.17;0.60;;;19.60;99.90;;;;;;5110652;28;20204;-82
2023/10/18 05:37:13;;;;;;;3.33;0.60;;;19.50;99.90;;;;;;5110452;28;20532;-81
2023/10/18 05:40:42;;;;;;;3.00;0.40;;;19.40;99.90;;;;;;5110302;28;20200;-78
2023/10/18 05:42:46;;;;;;;1.40;0.40;;;19.40;99.90;;;;;;5110161;28;20214;-80
2023/10/18 05:45:17;;;;;;;2.97;0.40;;;19.50;99.90;;;;;;5109992;28;20630;-82
2023/10/18 05:47:54;;;;;;;4.70;0.52;;;19.50;99.90;;;;;;5110407;28;20234;-78
2023/10/18 05:50:25;;;;;;;2.78;0.60;;;19.50;99.90;;;;;;5110117;28;20238;-82
2023/10/18 05:52:58;;;;;;;5.68;0.70;;;19.30;99.90;;;;;;5110118;28;20560;-81
2023/10/18 05:55:32;;;;;;;4.47;0.60;;;19.10;99.90;;;;;;5110138;28;20184;-81
2023/10/18 05:58:04;;;;;;;4.10;0.80;;;19.20;99.90;;;;;;5109716;28;20192;-83
2023/10/18 06:00:36;;;;;;;2.95;0.80;;;19.20;99.90;;;;;;5110388;28;20261;-83
2023/10/18 06:03:09;;;;;;;2.58;0.55;;;19.30;99.90;;;;;;5097641;28;20199;-82
2023/10/18 06:05:40;;;;;;;3.15;0.57;;;19.30;99.90;;;;;;5096414;28;20196;-81
2023/10/18 06:08:14;;;;;;;4.88;0.60;;;19.40;99.90;;;;;;5096193;28;20219;-81
2023/10/18 06:10:49;;;;;;;0.98;0.30;;;19.40;99.90;;;;;;5096298;28;20212;-80
2023/10/18 06:13:23;;;;;;;2.20;0.60;;;19.40;99.90;;;;;;5096147;28;20286;-82
2023/10/18 06:15:58;;;;;;;3.63;0.40;;;19.30;99.90;;;;;;5096165;28;20275;-81
2023/10/18 06:18:37;;;;;;;3.90;0.55;;;19.30;99.90;;;;;;5096040;28;20640;-82
2023/10/18 06:21:12;;;;;;;2.63;0.60;;;19.20;99.90;;;;;;5096023;28;20192;-78
2023/10/18 06:23:44;;;;;;;2.83;0.40;;;19.00;99.90;;;;;;5096001;28;20200;-82
2023/10/18 06:26:33;;;;;;;2.13;0.55;;;18.90;99.90;;;;;;5095940;28;20279;-78
2023/10/18 06:29:08;;;;;;;1.42;0.43;;;18.80;99.90;;;;;;5095914;28;20193;-81
2023/10/18 06:31:43;;;;;;;1.42;0.40;;;18.80;99.90;;;;;;5095853;28;20302;-79
2023/10/18 06:34:17;;;;;;;2.53;0.47;;;18.90;99.90;;;;;;5095798;28;20616;-80
2023/10/18 06:36:49;;;;;;;2.95;0.50;;;18.90;99.90;;;;;;5095785;28;20192;-80
2023/10/18 06:39:28;;;;;;;3.42;0.60;;;18.90;99.90;;;;;;5091724;28;20191;-78
2023/10/18 06:42:06;;;;;;;4.10;0.52;;;18.90;99.90;;;;;;5080129;28;20204;-79
2023/10/18 06:44:37;;;;;;;2.90;0.50;;;18.90;99.90;;;;;;5081099;28;20304;-81
2023/10/18 06:47:13;;;;;;;3.17;0.50;;;18.80;99.90;;;;;;5097697;28;20187;-80
2023/10/18 06:49:47;;;;;;;4.15;0.50;;;18.80;99.90;;;;;;5097409;28;20636;-83
2023/10/18 06:52:21;;;;;;;0.95;0.32;;;18.70;99.90;;;;;;5102281;28;20612;-80
2023/10/18 06:54:54;;;;;;;3.97;0.80;;;18.60;99.90;;;;;;5099416;28;20184;-84
2023/10/18 06:57:35;;;;;;;4.32;0.40;;;18.60;99.90;;;;;;5099243;28;20204;-81
2023/10/18 07:00:11;;;;;;;2.45;0.50;;;18.50;99.90;;;;;;5103519;28;20215;-80
2023/10/18 07:02:44;;;;;;;3.17;0.50;;;18.40;99.90;;;;;;5103289;28;20184;-82
2023/10/18 07:05:16;;;;;;;1.38;0.40;;;18.30;99.90;;;;;;5100280;28;20181;-82
2023/10/18 07:07:47;;;;;;;2.13;0.40;;;18.30;99.90;;;;;;5102599;27;20223;-80
2023/10/18 07:10:48;;;;;;;5.53;0.70;;;18.20;99.90;;;;;;5088143;28;20568;-79
2023/10/18 07:13:14;;;;;;;3.13;0.40;;;18.10;99.90;;;;;;5083935;28;20224;-79
2023/10/18 07:15:45;;;;;;;2.40;0.50;;;18.10;99.90;;;;;;5089456;28;20656;-79
2023/10/18 07:18:16;;;;;;;3.20;0.50;;;18.10;99.90;;;;;;5076463;28;20200;-81
2023/10/18 07:20:49;;;;;;;4.43;0.80;;;18.10;99.90;;;;;;5090778;28;20200;-80
2023/10/18 07:23:21;;;;;;;3.92;0.70;;;18.10;99.90;;;;;;5090860;28;20288;-81
2023/10/18 07:25:52;;;;;;;4.35;0.50;;;18.00;99.90;;;;;;5088458;28;20344;-83
2023/10/18 07:28:29;;;;;;;2.80;0.57;;;18.00;99.90;;;;;;5085276;28;20207;-79
2023/10/18 07:31:01;;;;;;;3.45;0.60;;;18.00;99.90;;;;;;5081617;28;20226;-78
2023/10/18 07:33:31;;;;;;;4.45;0.50;;;17.90;99.90;;;;;;5081009;28;20653;-78
2023/10/18 07:36:02;;;;;;;2.05;0.50;;;17.90;99.90;;;;;;5084017;28;20221;-82
2023/10/18 07:38:33;;;;;;;2.60;0.80;;;17.80;99.90;;;;;;5086842;28;20249;-78
2023/10/18 07:41:07;;;;;;;3.78;0.50;;;17.80;99.90;;;;;;5086955;28;20740;-79
2023/10/18 07:43:41;;;;;;;7.05;0.70;;;17.70;99.90;;;;;;5093368;28;20215;-80
2023/10/18 07:46:16;;;;;;;4.30;0.60;;;17.70;99.90;;;;;;5088891;28;20671;-77
2023/10/18 07:48:53;;;;;;;3.42;0.70;;;17.70;99.90;;;;;;5080690;28;20745;-80
2023/10/18 07:51:25;;;;;;;3.97;0.45;;;17.60;99.90;;;;;;5088329;28;20243;-80
2023/10/18 07:53:57;;;;;;;4.38;0.73;;;17.60;99.90;;;;;;5087958;28;20205;-78
2023/10/18 07:56:29;;;;;;;3.00;0.60;;;17.50;99.90;;;;;;5088814;28;20683;-78
2023/10/18 08:02:07;;;;;;;5.35;0.70;;;17.40;99.90;;;;;;5084477;28;20235;-83
2023/10/18 08:04:38;;;;;;;5.07;0.63;;;17.30;99.90;;;;;;5088075;28;20610;-89
2023/10/18 08:07:15;;;;;;;1.67;0.63;;;17.20;99.90;;;;;;5081424;28;20204;-89
2023/10/18 08:09:48;;;;;;;6.43;0.80;;;17.20;99.90;;;;;;5088245;28;20203;-86
2023/10/18 08:12:28;;;;;;;4.57;1.00;;;17.10;99.90;;;;;;5082496;28;20238;-89
2023/10/18 08:15:13;;;;;;;5.25;0.95;;;17.00;99.90;;;;;;5089483;28;20628;-88
2023/10/18 08:17:47;;;;;;;3.55;1.02;;;17.00;99.90;;;;;;5081228;28;20739;-90
2023/10/18 08:23:18;;;;;;;2.50;0.75;;;16.90;99.90;;;;;;5080155;28;20204;-86
2023/10/18 08:25:51;;;;;;;3.20;1.20;;;16.90;99.90;;;;;;5091397;28;20664;-90
2023/10/18 08:28:22;;;;;;;3.72;1.27;;;16.80;99.90;;;;;;5090081;28;20693;-89
2023/10/18 08:33:44;;;;;;;3.40;0.88;;;16.80;99.90;;;;;;5056179;28;20556;-84
2023/10/18 08:36:16;;;;;;;2.63;0.70;;;16.70;99.90;;;;;;5087696;28;20588;-88
2023/10/18 08:38:46;;;;;;;5.05;0.90;;;16.70;99.90;;;;;;5085772;28;20737;-87
2023/10/18 08:41:21;;;;;;;6.00;1.00;;;16.70;99.90;;;;;;5086277;28;20215;-88
2023/10/18 08:44:19;;;;;;;5.80;0.90;;;16.70;99.90;;;;;;5082353;28;20227;-87
2023/10/18 08:47:03;;;;;;;1.98;0.60;;;16.60;99.90;;;;;;5081249;28;20196;-87
2023/10/18 08:49:44;;;;;;;2.65;0.80;;;16.60;99.90;;;;;;5091890;28;20211;-85
2023/10/18 08:52:20;;;;;;;2.50;0.70;;;16.60;99.90;;;;;;5080778;28;20242;-87
2023/10/18 08:54:52;;;;;;;3.70;0.70;;;16.50;99.90;;;;;;5078466;28;20188;-85
2023/10/18 08:57:34;;;;;;;3.15;0.60;;;16.50;99.90;;;;;;5088861;28;20196;-88
2023/10/18 09:00:35;;;;;;;2.33;0.70;;;16.50;99.90;;;;;;5085841;28;20207;-87
2023/10/18 09:03:04;;;;;;;5.47;0.80;;;16.50;99.90;;;;;;5084867;28;20291;-86
2023/10/18 09:05:37;;;;;;;5.38;0.90;;;16.50;99.90;;;;;;5079582;28;20310;-87
2023/10/18 09:08:14;;;;;;;3.95;0.95;;;16.40;99.90;;;;;;5082339;28;22409;-88
2023/10/18 09:10:49;;;;;;;3.90;0.88;;;16.40;99.90;;;;;;5084589;28;20705;-88
2023/10/18 09:16:19;;;;;;;3.00;0.80;;;16.40;99.90;;;;;;5062638;28;20195;-87
2023/10/18 09:18:52;;;;;;;1.40;0.77;;;16.30;99.90;;;;;;5075681;28;21926;-88
2023/10/18 09:21:26;;;;;;;4.20;0.75;;;16.30;99.90;;;;;;5084382;28;20196;-85
2023/10/18 09:23:59;;;;;;;3.25;0.75;;;16.20;99.90;;;;;;5078611;28;20193;-85
2023/10/18 09:26:35;;;;;;;1.33;0.52;;;16.20;99.90;;;;;;5092014;28;20284;-87
2023/10/18 09:29:08;;;;;;;3.33;0.80;;;16.20;99.90;;;;;;5080514;28;20196;-76
2023/10/18 09:31:53;;;;;;;2.58;0.85;;;16.20;99.90;;;;;;5085840;28;20208;-83
2023/10/18 09:34:33;;;;;;;2.33;1.00;;;16.20;99.90;;;;;;5083437;28;20273;-82
2023/10/18 09:37:11;;;;;;;3.33;0.70;;;16.20;99.90;;;;;;5084168;28;20200;-76
2023/10/18 09:39:43;;;;;;;5.85;0.98;;;16.10;99.90;;;;;;5086191;28;20192;-77
2023/10/18 09:42:15;;;;;;;3.60;1.20;;;16.10;99.90;;;;;;5080732;28;20616;-78
2023/10/18 09:44:46;;;;;;;5.05;1.00;;;16.00;99.90;;;;;;5082124;28;20269;-87
2023/10/18 09:47:17;;;;;;;3.33;1.10;;;16.00;99.90;;;;;;5092106;28;20253;-83
2023/10/18 09:49:53;;;;;;;4.72;1.10;;;16.00;99.90;;;;;;5086806;28;20204;-83
2023/10/18 09:52:30;;;;;;;2.58;1.00;;;16.00;99.90;;;;;;5078911;28;20228;-84
2023/10/18 09:55:04;;;;;;;4.68;1.10;;;15.90;99.90;;;;;;5091938;28;20193;-85
2023/10/18 09:57:40;;;;;;;2.58;1.40;;;15.90;99.90;;;;;;5095944;28;20192;-86
2023/10/18 10:00:12;;;;;;;2.00;0.80;;;15.90;99.90;;;;;;5088407;28;20801;-86
2023/10/18 10:02:52;;;;;;;2.03;0.80;;;15.90;99.90;;;;;;5076154;28;20185;-85
2023/10/18 10:05:26;;;;;;;3.80;1.20;;;15.80;99.90;;;;;;5085595;28;20192;-85
2023/10/18 10:08:06;;;;;;;2.08;0.82;;;15.80;99.90;;;;;;5086699;28;20682;-85
2023/10/18 10:10:46;;;;;;;3.58;1.08;;;15.80;99.90;;;;;;5084370;28;20227;-79
2023/10/18 10:13:25;;;;;;;2.92;1.30;;;15.80;99.90;;;;;;5079129;28;20570;-80
2023/10/18 10:15:59;;;;;;;4.93;1.00;;;15.70;99.90;;;;;;5083429;28;20651;-83
2023/10/18 10:18:33;;;;;;;3.83;0.95;;;15.70;99.90;;;;;;5086833;28;20662;-87
2023/10/18 10:21:10;;;;;;;2.78;1.15;;;15.70;99.90;;;;;;5083926;28;21911;-87
2023/10/18 10:23:42;;;;;;;3.35;0.90;;;15.70;99.90;;;;;;5083315;28;20554;-85
2023/10/18 10:26:15;;;;;;;2.53;1.10;;;15.60;99.90;;;;;;5089311;28;20245;-86
2023/10/18 10:31:52;;;;;;;5.68;1.38;;;15.60;99.90;;;;;;5083424;28;20669;-88
2023/10/18 10:34:32;;;;;;;3.22;1.40;;;15.60;99.90;;;;;;5095294;28;20195;-87
2023/10/18 10:37:15;;;;;;;2.75;1.05;;;15.60;99.90;;;;;;5086815;28;20200;-85
2023/10/18 10:39:49;;;;;;;3.15;1.30;;;15.50;99.90;;;;;;5083659;28;20192;-87
2023/10/18 10:42:41;;;;;;;5.35;1.65;;;15.50;99.90;;;;;;5091308;28;20199;-88
2023/10/18 10:45:23;;;;;;;5.85;1.52;;;15.50;99.90;;;;;;5090593;28;20184;-87
2023/10/18 10:47:55;;;;;;;4.55;1.35;;;15.50;99.90;;;;;;5088701;28;20206;-86
2023/10/18 10:50:50;;;;;;;4.25;1.10;;;15.40;99.90;;;;;;5096599;28;20272;-86
2023/10/18 10:53:33;;;;;;;3.17;0.80;;;15.40;99.90;;;;;;5096512;28;20699;-87
2023/10/18 10:56:16;;;;;;;5.43;1.45;;;15.40;99.90;;;;;;5090291;28;20200;-86
2023/10/18 10:59:03;;;;;;;2.35;1.00;;;15.40;99.90;;;;;;5095308;28;20648;-85
2023/10/18 11:04:59;;;;;;;2.75;1.15;;;15.40;99.90;;;;;;5084128;28;20207;-87
2023/10/18 11:07:30;;;;;;;2.40;1.00;;;15.30;99.90;;;;;;5096670;28;20197;-88
2023/10/18 11:10:14;;;;;;;3.75;1.10;;;15.30;99.90;;;;;;5084005;28;20712;-86
2023/10/18 11:12:47;;;;;;;4.03;1.30;;;15.30;99.90;;;;;;5084278;28;20231;-84
2023/10/18 11:15:27;;;;;;;2.25;1.00;;;15.30;99.90;;;;;;5083270;28;20188;-86
2023/10/18 11:18:09;;;;;;;4.00;1.10;;;15.20;99.90;;;;;;5080073;28;20200;-86
2023/10/18 11:20:58;;;;;;;3.47;0.85;;;15.30;99.90;;;;;;5084812;28;20192;-87
2023/10/18 11:23:33;;;;;;;4.78;1.33;;;15.30;99.90;;;;;;5082333;28;20247;-87
2023/10/18 11:26:09;;;;;;;2.78;1.00;;;15.20;99.90;;;;;;5084923;28;20279;-87
2023/10/18 11:28:41;;;;;;;4.47;0.90;;;15.20;99.90;;;;;;5083656;28;20535;-86
2023/10/18 11:31:12;;;;;;;2.65;1.00;;;15.20;99.90;;;;;;5084727;28;20188;-86
2023/10/18 11:33:57;;;;;;;2.92;0.95;;;15.20;99.90;;;;;;5082256;28;20209;-87
2023/10/18 11:36:30;;;;;;;2.65;0.95;;;15.30;99.90;;;;;;5087818;28;20259;-86
2023/10/18 11:41:56;;;;;;;3.83;1.02;;;15.30;99.90;;;;;;5067986;28;20550;-86
2023/10/18 11:44:33;;;;;;;4.07;1.15;;;15.30;99.90;;;;;;5083609;28;20216;-87
2023/10/18 11:47:18;;;;;;;3.63;1.00;;;15.30;99.90;;;;;;5073962;28;20644;-86
2023/10/18 11:49:53;;;;;;;5.80;1.08;;;15.30;99.90;;;;;;5078794;28;20275;-87
2023/10/18 11:52:25;;;;;;;1.95;0.90;;;15.30;99.90;;;;;;5092643;28;20220;-88
2023/10/18 11:55:08;;;;;;;2.78;1.00;;;15.30;99.90;;;;;;5089010;28;20228;-87
2023/10/18 11:57:46;;;;;;;2.90;1.10;;;15.30;99.90;;;;;;5080390;28;20284;-87
2023/10/18 12:00:26;;;;;;;1.88;0.93;;;15.30;99.90;;;;;;5081092;28;20196;-86
2023/10/18 12:02:57;;;;;;;2.22;0.90;;;15.40;99.90;;;;;;5084733;28;20246;-88
2023/10/18 12:05:28;;;;;;;2.65;1.00;;;15.40;99.90;;;;;;5086392;28;20249;-88
2023/10/18 12:08:05;;;;;;;3.63;1.20;;;15.40;99.90;;;;;;5090653;28;20193;-78
2023/10/18 12:10:36;;;;;;;3.13;0.93;;;15.50;99.90;;;;;;5081765;28;20192;-78
2023/10/18 12:13:12;;;;;;;3.50;0.95;;;15.50;99.90;;;;;;5080424;28;20216;-77
2023/10/18 12:15:43;;;;;;;3.03;1.10;;;15.50;99.90;;;;;;5093391;28;20666;-87
2023/10/18 12:18:14;;;;;;;2.85;1.10;;;15.50;99.90;;;;;;5094951;28;20201;-83
2023/10/18 12:20:51;;;;;;;3.97;1.00;;;15.60;99.90;;;;;;5084535;28;20193;-81
2023/10/18 12:23:22;;;;;;;2.47;0.88;;;15.60;99.90;;;;;;5084951;28;20288;-79
2023/10/18 12:25:53;;;;;;;2.97;1.00;;;15.60;99.90;;;;;;5092936;28;20271;-84
2023/10/18 12:28:34;;;;;;;2.80;1.00;;;15.60;99.90;;;;;;5093622;28;20272;-79
2023/10/18 12:31:12;;;;;;;2.60;0.90;;;15.60;99.90;;;;;;5093469;28;20203;-79
2023/10/18 12:33:48;;;;;;;3.80;1.23;;;15.60;99.90;;;;;;5073648;28;20215;-81
2023/10/18 12:36:32;;;;;;;5.07;1.38;;;15.60;99.90;;;;;;5092215;28;20253;-76
2023/10/18 12:39:05;;;;;;;3.28;1.23;;;15.70;99.90;;;;;;5093608;28;20192;-83
2023/10/18 12:41:39;;;;;;;7.43;1.58;;;15.70;99.90;;;;;;5094005;28;20228;-82
2023/10/18 12:44:17;;;;;;;3.78;1.48;;;15.70;99.90;;;;;;5090189;28;20220;-79
2023/10/18 12:46:50;;;;;;;2.80;1.30;;;15.60;99.90;;;;;;5073653;28;20197;-85
2023/10/18 12:49:24;;;;;;;3.13;1.50;;;15.60;99.90;;;;;;5073339;28;20621;-80
2023/10/18 12:52:00;;;;;;;3.97;1.30;;;15.60;99.90;;;;;;5079359;28;20228;-82
2023/10/18 12:54:36;;;;;;;4.45;1.38;;;15.50;99.90;;;;;;5087837;28;20193;-83
2023/10/18 12:57:18;;;;;;;3.88;1.48;;;15.50;99.90;;;;;;5086497;28;20190;-81
2023/10/18 13:00:11;;;;;;;4.85;1.45;;;15.50;99.90;;;;;;5091074;28;20196;-84
2023/10/18 13:02:51;;;;;;;2.70;1.48;;;15.40;99.90;;;;;;5082281;28;20645;-84
2023/10/18 13:05:20;;;;;;;3.53;1.35;;;15.40;99.90;;;;;;5083995;28;20224;-83
2023/10/18 13:07:52;;;;;;;6.80;1.65;;;15.40;99.90;;;;;;5080958;28;20201;-83
2023/10/18 13:10:29;;;;;;;2.65;1.10;;;15.40;99.90;;;;;;5087125;28;20656;-84
2023/10/18 13:13:04;;;;;;;3.40;1.30;;;15.40;99.90;;;;;;5095004;28;20643;-84
2023/10/18 13:15:40;;;;;;;6.32;1.55;;;15.40;99.90;;;;;;5096575;28;20286;-77
2023/10/18 13:18:11;;;;;;;3.45;1.20;;;15.40;99.90;;;;;;5084532;28;20655;-86
2023/10/18 13:20:44;;;;;;;3.75;1.13;;;15.40;99.90;;;;;;5094441;28;20215;-86
2023/10/18 13:23:18;;;;;;;3.28;1.38;;;15.40;99.90;;;;;;5093968;28;20199;-78
2023/10/18 13:25:53;;;;;;;3.25;1.15;;;15.40;99.90;;;;;;5098047;28;20269;-79
2023/10/18 13:28:33;;;;;;;6.13;1.60;;;15.40;99.90;;;;;;5083784;28;20321;-83
2023/10/18 13:31:09;;;;;;;3.17;1.30;;;15.30;99.90;;;;;;5088126;28;20193;-84
2023/10/18 13:33:40;;;;;;;3.58;1.45;;;15.40;99.90;;;;;;5083719;28;20212;-82
2023/10/18 13:36:14;;;;;;;3.85;1.42;;;15.40;99.90;;;;;;5090553;28;20712;-82
2023/10/18 13:38:45;;;;;;;4.65;1.67;;;15.40;99.90;;;;;;5076615;28;20192;-87
2023/10/18 13:41:16;;;;;;;4.05;1.55;;;15.40;99.90;;;;;;5076555;28;20201;-86
2023/10/18 13:43:47;;;;;;;3.47;1.70;;;15.40;99.90;;;;;;5081648;28;20219;-86
2023/10/18 13:46:23;;;;;;;4.00;1.60;;;15.40;99.90;;;;;;5088057;28;20220;-84
2023/10/18 13:48:54;;;;;;;4.72;1.80;;;15.40;99.90;;;;;;5076761;28;20629;-79
2023/10/18 13:51:24;;;;;;;3.10;1.55;;;15.40;99.90;;;;;;5076187;28;20582;-83
2023/10/18 13:53:55;;;;;;;4.45;1.70;;;15.50;99.90;;;;;;5076594;28;20223;-84